Hlavní strana
METAR-TAF:

METAR-TAF

Letiště :

Oberpfaffenhofen, Německo

zeměpisná šířka: 48-05N, zeměpisná délka: 011-17E, výška: 600 m

Aktuální stav počasí

Zpráva byla vytvořena před 40 minutami, v 14:20 UTC
Severozápadní vítr 7 kt
Teplota 6°C
Vlhkost vzduchu 52%
Tlak 1026 hPa
Viditelnost 10 km a více
Polojasno ve výšce 4500 ft

METAR: EDMO 191420Z 31007KT 9999 SCT045 06/M03 Q1026

Čas: 16:00 (15:00 UTC)

Předpověď počasí

Zpráva byla vytvořena před 1 hodinou a 0 minutami, v 14:00 UTC
Předpověď platná od 19 v 15 UTC do 19 v 24 UTC
Severní vítr 6 kt
Viditelnost 10 km a více
Polojasno ve výšce 4000 ft
Změna
od 19 v 16 UTC do 19 v 18 UTC
Východoseverovýchodní vítr 2 kt

TAF: EDMO 191400Z 1915/1924 35006KT 9999 SCT040 BECMG 1916/1918 06002KT

Stav a předpovědi počasí z více než 4 000 letišť (zprávy METAR a TAF).

Červené a žluté tečky na mapě představují dostupné meteorologické stanice.

Když kurzor umístíte na tečku, zobrazí se název stanice.

Pak kliknutím zobrazíte stav a předpověď počasí.

Chcete-li změnit mapu, kliknutím na zelené tlačítko se znaménkem +mapu přiblížíte, kliknutím na zelené tlačítko se znaménkem – mapu oddálíte a kliknutím na zelené šipky přejdete na sousední mapy.


METAR-TAF: